sensor_id;sensor_type;location;lat;lon;timestamp;pressure;altitude;pressure_sealevel;temperature;humidity
4617;BME280;2321;42.704;23.384;2023-07-13T00:00:48;95700.81;;;24.38;100.00
4617;BME280;2321;42.704;23.384;2023-07-13T00:03:15;95706.84;;;24.35;100.00
4617;BME280;2321;42.704;23.384;2023-07-13T00:05:42;95694.03;;;24.30;100.00
4617;BME280;2321;42.704;23.384;2023-07-13T00:08:09;95702.72;;;24.27;100.00
4617;BME280;2321;42.704;23.384;2023-07-13T00:10:39;95709.78;;;24.23;100.00
4617;BME280;2321;42.704;23.384;2023-07-13T00:13:07;95704.66;;;24.16;100.00
4617;BME280;2321;42.704;23.384;2023-07-13T00:15:36;95697.03;;;24.13;100.00
4617;BME280;2321;42.704;23.384;2023-07-13T00:18:03;95695.13;;;24.13;100.00
4617;BME280;2321;42.704;23.384;2023-07-13T00:20:30;95689.13;;;24.11;100.00
4617;BME280;2321;42.704;23.384;2023-07-13T00:22:57;95688.59;;;24.09;100.00
4617;BME280;2321;42.704;23.384;2023-07-13T00:25:24;95680.44;;;24.04;100.00
4617;BME280;2321;42.704;23.384;2023-07-13T00:27:53;95687.25;;;24.07;100.00
4617;BME280;2321;42.704;23.384;2023-07-13T00:30:20;95680.97;;;24.06;100.00
4617;BME280;2321;42.704;23.384;2023-07-13T00:32:48;95680.44;;;24.04;100.00
4617;BME280;2321;42.704;23.384;2023-07-13T00:35:16;95675.00;;;24.04;100.00
4617;BME280;2321;42.704;23.384;2023-07-13T00:37:43;95679.34;;;23.94;100.00
4617;BME280;2321;42.704;23.384;2023-07-13T00:40:11;95676.88;;;23.77;100.00
4617;BME280;2321;42.704;23.384;2023-07-13T00:42:39;95683.69;;;23.69;100.00
4617;BME280;2321;42.704;23.384;2023-07-13T00:48:17;95681.78;;;23.80;100.00
4617;BME280;2321;42.704;23.384;2023-07-13T00:50:48;95691.56;;;23.81;100.00
4617;BME280;2321;42.704;23.384;2023-07-13T00:53:15;95674.72;;;23.79;100.00
4617;BME280;2321;42.704;23.384;2023-07-13T00:55:43;95671.44;;;23.77;100.00
4617;BME280;2321;42.704;23.384;2023-07-13T00:58:10;95671.44;;;23.77;100.00
4617;BME280;2321;42.704;23.384;2023-07-13T01:00:38;95676.63;;;23.74;100.00
4617;BME280;2321;42.704;23.384;2023-07-13T01:03:05;95675.00;;;23.67;100.00
4617;BME280;2321;42.704;23.384;2023-07-13T01:05:34;95663.56;;;23.55;100.00
4617;BME280;2321;42.704;23.384;2023-07-13T01:08:03;95668.94;;;23.39;100.00
4617;BME280;2321;42.704;23.384;2023-07-13T01:10:30;95672.72;;;23.43;100.00
4617;BME280;2321;42.704;23.384;2023-07-13T01:13:04;95673.81;;;23.37;100.00
4617;BME280;2321;42.704;23.384;2023-07-13T01:15:37;95675.97;;;23.35;100.00
4617;BME280;2321;42.704;23.384;2023-07-13T01:18:05;95673.81;;;23.37;100.00
4617;BME280;2321;42.704;23.384;2023-07-13T01:20:33;95666.75;;;23.41;100.00
4617;BME280;2321;42.704;23.384;2023-07-13T01:23:05;95667.56;;;23.42;100.00
4617;BME280;2321;42.704;23.384;2023-07-13T01:25:34;95668.41;;;23.42;100.00
4617;BME280;2321;42.704;23.384;2023-07-13T01:28:01;95661.59;;;23.39;100.00
4617;BME280;2321;42.704;23.384;2023-07-13T01:30:28;95673.25;;;23.40;100.00
4617;BME280;2321;42.704;23.384;2023-07-13T01:32:56;95664.03;;;23.41;100.00
4617;BME280;2321;42.704;23.384;2023-07-13T01:35:23;95660.75;;;23.34;100.00
4617;BME280;2321;42.704;23.384;2023-07-13T01:37:52;95652.06;;;23.26;100.00
4617;BME280;2321;42.704;23.384;2023-07-13T01:40:21;95674.03;;;23.20;100.00
4617;BME280;2321;42.704;23.384;2023-07-13T01:42:48;95675.69;;;23.21;100.00
4617;BME280;2321;42.704;23.384;2023-07-13T01:45:15;95667.25;;;23.22;100.00
4617;BME280;2321;42.704;23.384;2023-07-13T01:47:42;95669.44;;;23.20;100.00
4617;BME280;2321;42.704;23.384;2023-07-13T01:50:09;95664.00;;;23.20;100.00
4617;BME280;2321;42.704;23.384;2023-07-13T01:52:36;95656.38;;;23.17;100.00
4617;BME280;2321;42.704;23.384;2023-07-13T01:55:04;95658.50;;;23.04;100.00
4617;BME280;2321;42.704;23.384;2023-07-13T01:57:32;95660.66;;;22.97;100.00
4617;BME280;2321;42.704;23.384;2023-07-13T01:59:59;95654.94;;;22.93;100.00
4617;BME280;2321;42.704;23.384;2023-07-13T02:02:26;95673.13;;;22.93;100.00
4617;BME280;2321;42.704;23.384;2023-07-13T02:04:53;95681.22;;;22.82;100.00
4617;BME280;2321;42.704;23.384;2023-07-13T02:07:20;95672.84;;;22.84;100.00
4617;BME280;2321;42.704;23.384;2023-07-13T02:09:47;95681.50;;;22.81;100.00
4617;BME280;2321;42.704;23.384;2023-07-13T02:12:14;95672.78;;;22.73;100.00
4617;BME280;2321;42.704;23.384;2023-07-13T02:14:42;95667.09;;;22.80;100.00
4617;BME280;2321;42.704;23.384;2023-07-13T02:17:09;95665.69;;;22.72;100.00
4617;BME280;2321;42.704;23.384;2023-07-13T02:19:36;95668.97;;;22.74;100.00
4617;BME280;2321;42.704;23.384;2023-07-13T02:22:03;95672.00;;;22.78;100.00
4617;BME280;2321;42.704;23.384;2023-07-13T02:24:30;95677.69;;;22.82;100.00
4617;BME280;2321;42.704;23.384;2023-07-13T02:26:57;95683.69;;;22.84;100.00
4617;BME280;2321;42.704;23.384;2023-07-13T02:29:24;95677.41;;;22.78;100.00
4617;BME280;2321;42.704;23.384;2023-07-13T02:31:52;95684.75;;;22.78;100.00
4617;BME280;2321;42.704;23.384;2023-07-13T02:34:19;95685.56;;;22.78;100.00
4617;BME280;2321;42.704;23.384;2023-07-13T02:36:46;95689.38;;;22.82;100.00
4617;BME280;2321;42.704;23.384;2023-07-13T02:39:13;95688.81;;;22.80;100.00
4617;BME280;2321;42.704;23.384;2023-07-13T02:41:40;95681.22;;;22.77;100.00
4617;BME280;2321;42.704;23.384;2023-07-13T02:44:07;95679.31;;;22.78;100.00
4617;BME280;2321;42.704;23.384;2023-07-13T02:46:36;95687.47;;;22.78;100.00
4617;BME280;2321;42.704;23.384;2023-07-13T02:49:04;95679.56;;;22.76;100.00
4617;BME280;2321;42.704;23.384;2023-07-13T02:51:31;95689.53;;;22.70;100.00
4617;BME280;2321;42.704;23.384;2023-07-13T02:53:59;95692.78;;;22.62;100.00
4617;BME280;2321;42.704;23.384;2023-07-13T02:56:28;95694.06;;;22.54;100.00
4617;BME280;2321;42.704;23.384;2023-07-13T02:58:56;95692.66;;;22.41;100.00
4617;BME280;2321;42.704;23.384;2023-07-13T03:01:23;95694.56;;;22.46;100.00
4617;BME280;2321;42.704;23.384;2023-07-13T03:03:51;95690.97;;;22.35;100.00
4617;BME280;2321;42.704;23.384;2023-07-13T03:06:20;95698.84;;;22.36;100.00
4617;BME280;2321;42.704;23.384;2023-07-13T03:08:48;95693.09;;;22.27;100.00
4617;BME280;2321;42.704;23.384;2023-07-13T03:11:17;95695.81;;;22.33;100.00
4617;BME280;2321;42.704;23.384;2023-07-13T03:13:45;95706.41;;;22.29;100.00
4617;BME280;2321;42.704;23.384;2023-07-13T03:16:12;95697.69;;;22.27;100.00
4617;BME280;2321;42.704;23.384;2023-07-13T03:18:41;95693.59;;;22.24;100.00
4617;BME280;2321;42.704;23.384;2023-07-13T03:21:08;95689.31;;;22.28;100.00
4617;BME280;2321;42.704;23.384;2023-07-13T03:23:37;95698.81;;;22.31;100.00
4617;BME280;2321;42.704;23.384;2023-07-13T03:26:05;95687.66;;;22.27;100.00
4617;BME280;2321;42.704;23.384;2023-07-13T03:28:33;95701.41;;;22.15;100.00
4617;BME280;2321;42.704;23.384;2023-07-13T03:31:01;95701.72;;;22.19;100.00
4617;BME280;2321;42.704;23.384;2023-07-13T03:33:28;95704.66;;;22.17;100.00
4617;BME280;2321;42.704;23.384;2023-07-13T03:35:55;95706.63;;;22.22;100.00
4617;BME280;2321;42.704;23.384;2023-07-13T03:38:21;95705.28;;;22.25;100.00
4617;BME280;2321;42.704;23.384;2023-07-13T03:40:50;95704.75;;;22.28;100.00
4617;BME280;2321;42.704;23.384;2023-07-13T03:43:17;95697.97;;;22.25;100.00
4617;BME280;2321;42.704;23.384;2023-07-13T03:45:45;95701.19;;;22.22;100.00
4617;BME280;2321;42.704;23.384;2023-07-13T03:48:12;95700.69;;;22.25;100.00
4617;BME280;2321;42.704;23.384;2023-07-13T03:50:40;95695.94;;;22.10;100.00
4617;BME280;2321;42.704;23.384;2023-07-13T03:53:07;95695.22;;;22.20;100.00
4617;BME280;2321;42.704;23.384;2023-07-13T03:55:34;95708.00;;;22.30;100.00
4617;BME280;2321;42.704;23.384;2023-07-13T03:58:29;95704.78;;;22.33;100.00
4617;BME280;2321;42.704;23.384;2023-07-13T04:00:58;95690.66;;;22.26;100.00
4617;BME280;2321;42.704;23.384;2023-07-13T04:03:26;95705.38;;;22.35;100.00
4617;BME280;2321;42.704;23.384;2023-07-13T04:05:54;95705.91;;;22.37;100.00
4617;BME280;2321;42.704;23.384;2023-07-13T04:08:26;95702.91;;;22.34;100.00
4617;BME280;2321;42.704;23.384;2023-07-13T04:10:53;95705.31;;;22.30;100.00
4617;BME280;2321;42.704;23.384;2023-07-13T04:13:21;95704.78;;;22.33;100.00
4617;BME280;2321;42.704;23.384;2023-07-13T04:15:48;95708.66;;;22.42;100.00
4617;BME280;2321;42.704;23.384;2023-07-13T04:18:15;95707.56;;;22.44;100.00
4617;BME280;2321;42.704;23.384;2023-07-13T04:20:42;95707.59;;;22.49;100.00
4617;BME280;2321;42.704;23.384;2023-07-13T04:23:09;95712.53;;;22.57;100.00
4617;BME280;2321;42.704;23.384;2023-07-13T04:25:36;95713.66;;;22.61;100.00
4617;BME280;2321;42.704;23.384;2023-07-13T04:28:03;95710.97;;;22.67;100.00
4617;BME280;2321;42.704;23.384;2023-07-13T04:30:31;95715.88;;;22.70;100.00
4617;BME280;2321;42.704;23.384;2023-07-13T04:32:58;95727.34;;;22.77;100.00
4617;BME280;2321;42.704;23.384;2023-07-13T04:35:25;95728.47;;;22.81;100.00
4617;BME280;2321;42.704;23.384;2023-07-13T04:37:52;95726.59;;;22.87;100.00
4617;BME280;2321;42.704;23.384;2023-07-13T04:40:19;95726.28;;;22.83;100.00
4617;BME280;2321;42.704;23.384;2023-07-13T04:42:47;95724.13;;;22.85;100.00
4617;BME280;2321;42.704;23.384;2023-07-13T04:45:14;95727.41;;;22.88;100.00
4617;BME280;2321;42.704;23.384;2023-07-13T04:47:44;95731.50;;;22.90;100.00
4617;BME280;2321;42.704;23.384;2023-07-13T04:50:13;95723.66;;;22.99;100.00
4617;BME280;2321;42.704;23.384;2023-07-13T04:52:41;95737.00;;;23.06;100.00
4617;BME280;2321;42.704;23.384;2023-07-13T04:55:08;95734.28;;;23.06;100.00
4617;BME280;2321;42.704;23.384;2023-07-13T04:57:35;95737.00;;;23.06;100.00
4617;BME280;2321;42.704;23.384;2023-07-13T05:00:02;95739.72;;;23.11;100.00
4617;BME280;2321;42.704;23.384;2023-07-13T05:02:32;95740.81;;;23.15;100.00
4617;BME280;2321;42.704;23.384;2023-07-13T05:05:01;95742.22;;;23.23;100.00
4617;BME280;2321;42.704;23.384;2023-07-13T05:07:29;95742.47;;;23.16;100.00
4617;BME280;2321;42.704;23.384;2023-07-13T05:09:58;95741.41;;;23.23;100.00
4617;BME280;2321;42.704;23.384;2023-07-13T05:12:25;95745.53;;;23.31;100.00
4617;BME280;2321;42.704;23.384;2023-07-13T05:14:52;95750.38;;;23.28;100.00
4617;BME280;2321;42.704;23.384;2023-07-13T05:17:19;95751.78;;;23.36;100.00
4617;BME280;2321;42.704;23.384;2023-07-13T05:19:45;95748.25;;;23.41;100.00
4617;BME280;2321;42.704;23.384;2023-07-13T05:22:14;95742.56;;;23.43;100.00
4617;BME280;2321;42.704;23.384;2023-07-13T05:24:40;95745.81;;;23.45;100.00
4617;BME280;2321;42.704;23.384;2023-07-13T05:27:07;95744.50;;;23.53;100.00
4617;BME280;2321;42.704;23.384;2023-07-13T05:29:34;95743.44;;;23.59;100.00
4617;BME280;2321;42.704;23.384;2023-07-13T05:32:01;95742.38;;;23.65;100.00
4617;BME280;2321;42.704;23.384;2023-07-13T05:34:28;95747.31;;;23.74;100.00
4617;BME280;2321;42.704;23.384;2023-07-13T05:36:55;95744.84;;;23.77;100.00
4617;BME280;2321;42.704;23.384;2023-07-13T05:39:24;95753.81;;;23.83;100.00
4617;BME280;2321;42.704;23.384;2023-07-13T05:41:51;95757.09;;;23.90;100.00
4617;BME280;2321;42.704;23.384;2023-07-13T05:44:18;95759.28;;;23.99;100.00
4617;BME280;2321;42.704;23.384;2023-07-13T05:46:45;95751.16;;;24.09;100.00
4617;BME280;2321;42.704;23.384;2023-07-13T05:49:12;95760.94;;;24.21;100.00
4617;BME280;2321;42.704;23.384;2023-07-13T05:51:39;95748.97;;;24.27;100.00
4617;BME280;2321;42.704;23.384;2023-07-13T05:54:06;95752.00;;;24.36;100.00
4617;BME280;2321;42.704;23.384;2023-07-13T05:56:34;95753.63;;;24.42;100.00
4617;BME280;2321;42.704;23.384;2023-07-13T05:59:01;95756.34;;;24.53;100.00
4617;BME280;2321;42.704;23.384;2023-07-13T06:01:29;95752.78;;;24.63;100.00
4617;BME280;2321;42.704;23.384;2023-07-13T06:03:56;95748.41;;;24.77;100.00
4617;BME280;2321;42.704;23.384;2023-07-13T06:06:23;95742.13;;;24.92;100.00
4617;BME280;2321;42.704;23.384;2023-07-13T06:08:50;95751.91;;;25.04;100.00
4617;BME280;2321;42.704;23.384;2023-07-13T06:11:19;95749.69;;;25.17;100.00
4617;BME280;2321;42.704;23.384;2023-07-13T06:13:48;95754.81;;;25.29;95.09
4617;BME280;2321;42.704;23.384;2023-07-13T06:16:15;95758.03;;;25.41;92.73
4617;BME280;2321;42.704;23.384;2023-07-13T06:18:42;95760.69;;;25.52;89.09
4617;BME280;2321;42.704;23.384;2023-07-13T06:21:12;95760.13;;;25.60;89.05
4617;BME280;2321;42.704;23.384;2023-07-13T06:23:39;95754.91;;;25.69;88.82
4617;BME280;2321;42.704;23.384;2023-07-13T06:26:07;95752.69;;;25.82;90.24
4617;BME280;2321;42.704;23.384;2023-07-13T06:28:34;95752.31;;;25.94;86.93
4617;BME280;2321;42.704;23.384;2023-07-13T06:31:05;95757.69;;;26.04;85.69
4617;BME280;2321;42.704;23.384;2023-07-13T06:33:32;95752.78;;;26.06;83.69
4617;BME280;2321;42.704;23.384;2023-07-13T06:35:59;95747.53;;;26.15;82.03
4617;BME280;2321;42.704;23.384;2023-07-13T06:38:25;95751.00;;;26.26;80.52
4617;BME280;2321;42.704;23.384;2023-07-13T06:40:52;95754.78;;;26.30;77.24
4617;BME280;2321;42.704;23.384;2023-07-13T06:43:19;95752.00;;;26.36;78.58
4617;BME280;2321;42.704;23.384;2023-07-13T06:45:48;95750.03;;;26.47;77.28
4617;BME280;2321;42.704;23.384;2023-07-13T06:48:17;95748.09;;;26.52;80.64
4617;BME280;2321;42.704;23.384;2023-07-13T06:50:45;95742.44;;;26.68;77.07
4617;BME280;2321;42.704;23.384;2023-07-13T06:53:13;95742.84;;;26.86;73.35
4617;BME280;2321;42.704;23.384;2023-07-13T06:55:40;95745.75;;;26.95;70.97
4617;BME280;2321;42.704;23.384;2023-07-13T06:58:06;95743.84;;;26.95;68.05
4617;BME280;2321;42.704;23.384;2023-07-13T07:00:33;95749.00;;;26.97;70.23
4617;BME280;2321;42.704;23.384;2023-07-13T07:03:00;95745.63;;;27.05;69.14
4617;BME280;2321;42.704;23.384;2023-07-13T07:05:28;95741.72;;;27.12;71.37
4617;BME280;2321;42.704;23.384;2023-07-13T07:07:55;95752.00;;;27.25;64.92
4617;BME280;2321;42.704;23.384;2023-07-13T07:10:22;95751.66;;;27.32;64.41
4617;BME280;2321;42.704;23.384;2023-07-13T07:12:49;95741.16;;;27.39;68.26
4617;BME280;2321;42.704;23.384;2023-07-13T07:15:17;95753.06;;;27.49;69.46
4617;BME280;2321;42.704;23.384;2023-07-13T07:17:44;95734.91;;;27.58;68.44
4617;BME280;2321;42.704;23.384;2023-07-13T07:20:12;95738.50;;;27.73;67.73
4617;BME280;2321;42.704;23.384;2023-07-13T07:22:40;95731.75;;;27.90;67.16
4617;BME280;2321;42.704;23.384;2023-07-13T07:25:07;95739.72;;;28.05;66.78
4617;BME280;2321;42.704;23.384;2023-07-13T07:27:34;95738.59;;;28.26;66.23
4617;BME280;2321;42.704;23.384;2023-07-13T07:30:01;95734.94;;;28.31;62.29
4617;BME280;2321;42.704;23.384;2023-07-13T07:32:29;95728.56;;;28.35;63.12
4617;BME280;2321;42.704;23.384;2023-07-13T07:34:57;95728.63;;;28.49;65.01
4617;BME280;2321;42.704;23.384;2023-07-13T07:37:24;95732.41;;;28.54;60.88
4617;BME280;2321;42.704;23.384;2023-07-13T07:39:52;95720.84;;;28.57;60.64
4617;BME280;2321;42.704;23.384;2023-07-13T07:42:19;95726.44;;;28.66;61.47
4617;BME280;2321;42.704;23.384;2023-07-13T07:44:46;95716.09;;;28.77;61.19
4617;BME280;2321;42.704;23.384;2023-07-13T07:47:13;95719.75;;;28.86;60.07
4617;BME280;2321;42.704;23.384;2023-07-13T07:49:40;95718.84;;;28.91;59.27
4617;BME280;2321;42.704;23.384;2023-07-13T07:52:07;95722.19;;;29.02;61.49
4617;BME280;2321;42.704;23.384;2023-07-13T07:54:34;95718.97;;;29.14;61.40
4617;BME280;2321;42.704;23.384;2023-07-13T07:57:03;95713.59;;;29.23;57.83
4617;BME280;2321;42.704;23.384;2023-07-13T07:59:30;95710.31;;;29.35;57.55
4617;BME280;2321;42.704;23.384;2023-07-13T08:01:56;95714.97;;;29.48;53.87
4617;BME280;2321;42.704;23.384;2023-07-13T08:04:23;95713.25;;;29.53;56.22
4617;BME280;2321;42.704;23.384;2023-07-13T08:06:50;95707.22;;;29.65;56.16
4617;BME280;2321;42.704;23.384;2023-07-13T08:09:17;95702.84;;;29.78;55.61
4617;BME280;2321;42.704;23.384;2023-07-13T08:11:44;95694.69;;;29.87;54.52
4617;BME280;2321;42.704;23.384;2023-07-13T08:14:12;95696.88;;;29.99;54.97
4617;BME280;2321;42.704;23.384;2023-07-13T08:16:39;95694.19;;;30.08;53.55
4617;BME280;2321;42.704;23.384;2023-07-13T08:19:06;95685.69;;;30.18;53.87
4617;BME280;2321;42.704;23.384;2023-07-13T08:21:33;95686.56;;;30.28;53.43
4617;BME280;2321;42.704;23.384;2023-07-13T08:24:00;95688.28;;;30.38;53.14
4617;BME280;2321;42.704;23.384;2023-07-13T08:26:27;95682.00;;;30.46;53.04
4617;BME280;2321;42.704;23.384;2023-07-13T08:28:54;95687.25;;;30.56;52.31
4617;BME280;2321;42.704;23.384;2023-07-13T08:31:22;95686.16;;;30.66;52.27
4617;BME280;2321;42.704;23.384;2023-07-13T08:33:49;95682.63;;;30.75;51.54
4617;BME280;2321;42.704;23.384;2023-07-13T08:36:16;95664.72;;;30.86;52.11
4617;BME280;2321;42.704;23.384;2023-07-13T08:38:43;95668.13;;;30.92;50.62
4617;BME280;2321;42.704;23.384;2023-07-13T08:41:12;95664.94;;;30.99;51.68
4617;BME280;2321;42.704;23.384;2023-07-13T08:43:41;95675.97;;;31.08;51.17
4617;BME280;2321;42.704;23.384;2023-07-13T08:46:13;95673.06;;;31.13;48.80
4617;BME280;2321;42.704;23.384;2023-07-13T08:48:45;95672.28;;;31.13;49.90
4617;BME280;2321;42.704;23.384;2023-07-13T08:51:24;95670.97;;;31.19;50.79
4617;BME280;2321;42.704;23.384;2023-07-13T08:53:57;95668.56;;;31.26;50.79
4617;BME280;2321;42.704;23.384;2023-07-13T08:56:29;95673.59;;;31.33;47.30
4617;BME280;2321;42.704;23.384;2023-07-13T08:58:58;95677.34;;;31.37;46.99
4617;BME280;2321;42.704;23.384;2023-07-13T09:01:31;95684.44;;;31.38;48.57
4617;BME280;2321;42.704;23.384;2023-07-13T09:04:05;95683.63;;;31.38;46.85
4617;BME280;2321;42.704;23.384;2023-07-13T09:06:43;95690.59;;;31.44;48.03
4617;BME280;2321;42.704;23.384;2023-07-13T09:09:20;95696.09;;;31.53;49.26
4617;BME280;2321;42.704;23.384;2023-07-13T09:11:54;95695.50;;;31.56;47.30
4617;BME280;2321;42.704;23.384;2023-07-13T09:14:34;95703.75;;;31.65;48.62
4617;BME280;2321;42.704;23.384;2023-07-13T09:17:09;95694.06;;;31.77;49.10
4617;BME280;2321;42.704;23.384;2023-07-13T09:19:40;95694.22;;;31.89;48.71
4617;BME280;2321;42.704;23.384;2023-07-13T09:22:17;95689.84;;;31.97;49.37
4617;BME280;2321;42.704;23.384;2023-07-13T09:24:52;95698.72;;;32.03;48.71
4617;BME280;2321;42.704;23.384;2023-07-13T09:27:23;95695.03;;;32.07;49.90
4617;BME280;2321;42.704;23.384;2023-07-13T09:29:55;95692.94;;;32.13;50.59
4617;BME280;2321;42.704;23.384;2023-07-13T09:32:24;95686.59;;;32.22;50.27
4617;BME280;2321;42.704;23.384;2023-07-13T09:34:54;95687.88;;;32.24;51.22
4617;BME280;2321;42.704;23.384;2023-07-13T09:37:27;95682.69;;;32.32;50.90
4617;BME280;2321;42.704;23.384;2023-07-13T09:39:55;95689.94;;;32.45;52.48
4617;BME280;2321;42.704;23.384;2023-07-13T09:42:23;95691.22;;;32.57;49.78
4617;BME280;2321;42.704;23.384;2023-07-13T09:44:53;95680.81;;;32.62;47.33
4617;BME280;2321;42.704;23.384;2023-07-13T09:47:22;95676.91;;;32.64;48.93
4617;BME280;2321;42.704;23.384;2023-07-13T09:49:56;95668.97;;;32.71;47.33
4617;BME280;2321;42.704;23.384;2023-07-13T09:52:25;95661.13;;;32.82;48.22
4617;BME280;2321;42.704;23.384;2023-07-13T09:54:53;95663.84;;;32.91;45.52
4617;BME280;2321;42.704;23.384;2023-07-13T09:57:26;95653.78;;;32.95;44.41
4617;BME280;2321;42.704;23.384;2023-07-13T09:59:54;95665.22;;;33.06;44.62
4617;BME280;2321;42.704;23.384;2023-07-13T10:02:27;95659.72;;;33.06;44.90
4617;BME280;2321;42.704;23.384;2023-07-13T10:05:01;95656.25;;;33.18;46.25
4617;BME280;2321;42.704;23.384;2023-07-13T10:07:29;95646.47;;;33.30;47.25
4617;BME280;2321;42.704;23.384;2023-07-13T10:09:58;95638.38;;;33.46;45.57
4617;BME280;2321;42.704;23.384;2023-07-13T10:12:28;95637.84;;;33.53;43.84
4617;BME280;2321;42.704;23.384;2023-07-13T10:14:58;95640.69;;;33.65;46.46
4617;BME280;2321;42.704;23.384;2023-07-13T10:17:29;95635.63;;;33.67;44.93
4617;BME280;2321;42.704;23.384;2023-07-13T10:20:01;95638.44;;;33.80;45.69
4617;BME280;2321;42.704;23.384;2023-07-13T10:22:36;95633.81;;;33.93;45.36
4617;BME280;2321;42.704;23.384;2023-07-13T10:25:14;95635.13;;;34.08;45.22
4617;BME280;2321;42.704;23.384;2023-07-13T10:27:42;95627.56;;;34.18;43.01
4617;BME280;2321;42.704;23.384;2023-07-13T10:30:13;95628.63;;;34.26;39.76
4617;BME280;2321;42.704;23.384;2023-07-13T10:32:42;95619.38;;;34.21;41.05
4617;BME280;2321;42.704;23.384;2023-07-13T10:35:13;95611.56;;;34.23;41.51
4617;BME280;2321;42.704;23.384;2023-07-13T10:37:46;95613.88;;;34.34;42.19
4617;BME280;2321;42.704;23.384;2023-07-13T10:40:19;95618.66;;;34.46;44.88
4617;BME280;2321;42.704;23.384;2023-07-13T10:42:50;95613.13;;;34.59;44.09
4617;BME280;2321;42.704;23.384;2023-07-13T10:45:20;95604.94;;;34.75;43.91
4617;BME280;2321;42.704;23.384;2023-07-13T10:47:48;95608.06;;;34.86;42.25
4617;BME280;2321;42.704;23.384;2023-07-13T10:50:22;95593.88;;;34.87;41.23
4617;BME280;2321;42.704;23.384;2023-07-13T10:52:51;95584.91;;;34.91;41.80
4617;BME280;2321;42.704;23.384;2023-07-13T10:55:37;95588.94;;;34.93;35.41
4617;BME280;2321;42.704;23.384;2023-07-13T10:58:13;95583.41;;;34.93;36.22
4617;BME280;2321;42.704;23.384;2023-07-13T11:00:47;95584.78;;;34.99;35.04
4617;BME280;2321;42.704;23.384;2023-07-13T11:03:17;95586.50;;;35.17;31.79
4617;BME280;2321;42.704;23.384;2023-07-13T11:05:49;95593.16;;;35.28;32.45
4617;BME280;2321;42.704;23.384;2023-07-13T11:08:20;95581.13;;;35.37;32.38
4617;BME280;2321;42.704;23.384;2023-07-13T11:10:51;95575.94;;;35.48;30.03
4617;BME280;2321;42.704;23.384;2023-07-13T11:13:37;95570.38;;;35.60;29.17
4617;BME280;2321;42.704;23.384;2023-07-13T11:16:13;95565.13;;;35.71;28.92
4617;BME280;2321;42.704;23.384;2023-07-13T11:18:40;95568.88;;;35.79;30.37
4617;BME280;2321;42.704;23.384;2023-07-13T11:21:19;95564.44;;;35.91;29.97
4617;BME280;2321;42.704;23.384;2023-07-13T11:23:53;95566.81;;;36.05;29.92
4617;BME280;2321;42.704;23.384;2023-07-13T11:26:41;95554.59;;;36.06;28.84
4617;BME280;2321;42.704;23.384;2023-07-13T11:29:12;95558.16;;;36.06;29.14
4617;BME280;2321;42.704;23.384;2023-07-13T11:31:52;95551.00;;;36.05;29.22
4617;BME280;2321;42.704;23.384;2023-07-13T11:34:26;95546.53;;;36.17;28.95
4617;BME280;2321;42.704;23.384;2023-07-13T11:36:56;95550.38;;;36.28;29.33
4617;BME280;2321;42.704;23.384;2023-07-13T11:39:28;95545.53;;;36.25;27.88
4617;BME280;2321;42.704;23.384;2023-07-13T11:41:58;95544.38;;;36.26;28.10
4617;BME280;2321;42.704;23.384;2023-07-13T11:44:27;95546.72;;;36.24;28.85
4617;BME280;2321;42.704;23.384;2023-07-13T11:46:56;95544.13;;;36.32;28.92
4617;BME280;2321;42.704;23.384;2023-07-13T11:49:28;95548.06;;;36.47;29.17
4617;BME280;2321;42.704;23.384;2023-07-13T11:51:57;95543.78;;;36.49;29.37
4617;BME280;2321;42.704;23.384;2023-07-13T11:54:29;95543.50;;;36.55;28.28
4617;BME280;2321;42.704;23.384;2023-07-13T11:57:00;95532.84;;;36.57;28.82
4617;BME280;2321;42.704;23.384;2023-07-13T11:59:29;95528.56;;;36.59;28.90
4617;BME280;2321;42.704;23.384;2023-07-13T12:01:58;95527.13;;;36.66;29.53
4617;BME280;2321;42.704;23.384;2023-07-13T12:04:27;95524.81;;;36.68;29.61
4617;BME280;2321;42.704;23.384;2023-07-13T12:07:04;95519.16;;;36.64;29.88
4617;BME280;2321;42.704;23.384;2023-07-13T12:09:33;95519.25;;;36.68;29.36
4617;BME280;2321;42.704;23.384;2023-07-13T12:12:02;95515.22;;;36.65;29.92
4617;BME280;2321;42.704;23.384;2023-07-13T12:14:33;95515.81;;;36.74;30.28
4617;BME280;2321;42.704;23.384;2023-07-13T12:17:00;95513.22;;;36.82;30.39
4617;BME280;2321;42.704;23.384;2023-07-13T12:19:28;95497.91;;;36.88;29.72
4617;BME280;2321;42.704;23.384;2023-07-13T12:21:58;95489.59;;;36.88;29.66
4617;BME280;2321;42.704;23.384;2023-07-13T12:24:26;95493.72;;;36.94;30.09
4617;BME280;2321;42.704;23.384;2023-07-13T12:26:58;95483.13;;;37.00;30.23
4617;BME280;2321;42.704;23.384;2023-07-13T12:29:26;95482.81;;;37.05;30.40
4617;BME280;2321;42.704;23.384;2023-07-13T12:31:53;95485.25;;;37.07;30.41
4617;BME280;2321;42.704;23.384;2023-07-13T12:34:23;95475.00;;;37.11;30.51
4617;BME280;2321;42.704;23.384;2023-07-13T12:36:52;95474.72;;;37.16;28.60
4617;BME280;2321;42.704;23.384;2023-07-13T12:39:23;95479.31;;;37.28;28.13
4617;BME280;2321;42.704;23.384;2023-07-13T12:41:52;95477.34;;;37.29;28.17
4617;BME280;2321;42.704;23.384;2023-07-13T12:44:25;95473.03;;;37.32;28.92
4617;BME280;2321;42.704;23.384;2023-07-13T12:46:56;95466.38;;;37.36;27.70
4617;BME280;2321;42.704;23.384;2023-07-13T12:49:27;95472.34;;;37.38;28.73
4617;BME280;2321;42.704;23.384;2023-07-13T12:51:58;95470.03;;;37.41;28.07
4617;BME280;2321;42.704;23.384;2023-07-13T12:54:28;95465.56;;;37.36;29.00
4617;BME280;2321;42.704;23.384;2023-07-13T12:56:56;95459.91;;;37.28;28.63
4617;BME280;2321;42.704;23.384;2023-07-13T12:59:28;95463.09;;;37.31;28.62
4617;BME280;2321;42.704;23.384;2023-07-13T13:01:56;95444.47;;;37.31;28.62
4617;BME280;2321;42.704;23.384;2023-07-13T13:04:23;95443.81;;;37.38;28.19
4617;BME280;2321;42.704;23.384;2023-07-13T13:07:01;95437.53;;;37.41;28.62
4617;BME280;2321;42.704;23.384;2023-07-13T13:09:29;95436.09;;;37.47;27.89
4617;BME280;2321;42.704;23.384;2023-07-13T13:11:56;95435.47;;;37.58;28.13
4617;BME280;2321;42.704;23.384;2023-07-13T13:14:23;95428.44;;;37.64;26.73
4617;BME280;2321;42.704;23.384;2023-07-13T13:16:51;95426.88;;;37.67;27.58